Time;durP1;ratioP1;P1;durP2;ratioP2;P2;SDS_P1;SDS_P2;PMS_P1;PMS_P2;Temp;Humidity;BMP_temperature;BMP_pressure;BME280_temperature;BME280_humidity;BME280_pressure;Samples;Min_cycle;Max_cycle;Signal;HPM_P1;HPM_P2
2022/05/30 00:01:51;;;;;;;13.50;6.97;;;;;;;16.33;100.00;98404.09;5111694;28;20237;-75
2022/05/30 00:04:17;;;;;;;9.03;6.70;;;;;;;16.34;100.00;98395.38;5112017;28;20674;-82
2022/05/30 00:06:44;;;;;;;9.47;6.80;;;;;;;16.28;100.00;98375.38;5111601;28;20244;-82
2022/05/30 00:09:13;;;;;;;10.57;7.37;;;;;;;16.14;100.00;98347.69;5111337;28;20209;-82
2022/05/30 00:11:39;;;;;;;10.13;7.33;;;;;;;16.02;100.00;98329.97;5111323;28;20318;-76
2022/05/30 00:14:06;;;;;;;9.27;7.20;;;;;;;15.93;100.00;98315.50;5111386;28;20213;-82
2022/05/30 00:16:33;;;;;;;12.70;8.03;;;;;;;15.86;100.00;98308.59;5111564;28;20237;-82
2022/05/30 00:18:59;;;;;;;12.60;7.87;;;;;;;15.79;100.00;98314.38;5111308;28;20709;-75
2022/05/30 00:21:26;;;;;;;11.87;7.90;;;;;;;15.75;100.00;98325.19;5111260;28;20229;-83
2022/05/30 00:23:54;;;;;;;13.07;8.17;;;;;;;15.69;100.00;98333.56;5111348;28;20214;-81
2022/05/30 00:26:21;;;;;;;11.87;8.10;;;;;;;15.67;100.00;98335.47;5111104;28;20245;-83
2022/05/30 00:28:47;;;;;;;13.30;8.43;;;;;;;15.67;100.00;98335.47;5111304;28;20217;-83
2022/05/30 00:31:16;;;;;;;15.80;8.70;;;;;;;15.69;100.00;98331.81;5111561;28;20241;-76
2022/05/30 00:33:43;;;;;;;13.83;8.20;;;;;;;15.67;100.00;98332.91;5111237;28;20654;-76
2022/05/30 00:36:10;;;;;;;12.87;8.20;;;;;;;15.69;100.00;98333.56;5111129;28;20232;-84
2022/05/30 00:38:36;;;;;;;12.40;8.80;;;;;;;15.67;100.00;98338.84;5111352;28;20208;-79
2022/05/30 00:41:03;;;;;;;15.20;9.13;;;;;;;15.67;100.00;98330.31;5111031;28;20254;-83
2022/05/30 00:43:32;;;;;;;16.27;10.33;;;;;;;15.62;100.00;98323.09;5110798;28;20213;-84
2022/05/30 00:45:59;;;;;;;16.37;9.50;;;;;;;15.62;100.00;98323.88;5110992;28;20228;-76
2022/05/30 00:48:29;;;;;;;16.10;10.77;;;;;;;15.62;100.00;98329.03;5110974;28;20601;-84
2022/05/30 00:51:01;;;;;;;17.33;11.30;;;;;;;15.60;100.00;98335.31;5110818;28;20245;-76
2022/05/30 00:53:28;;;;;;;18.17;11.63;;;;;;;15.55;100.00;98337.56;5110899;28;20314;-76
2022/05/30 00:55:55;;;;;;;18.73;11.40;;;;;;;15.55;100.00;98345.28;5110795;28;20237;-75
2022/05/30 00:58:23;;;;;;;17.57;11.03;;;;;;;15.62;100.00;98349.66;5110837;28;20213;-83
2022/05/30 01:00:49;;;;;;;19.03;11.33;;;;;;;15.71;100.00;98352.28;5110969;28;20261;-82
2022/05/30 01:08:44;;;;;;;19.13;11.90;;;;;;;15.78;100.00;98358.38;5110766;28;20204;-75
2022/05/30 01:11:10;;;;;;;33.30;11.43;;;;;;;15.84;100.00;98374.00;5110338;28;20722;-75
2022/05/30 01:13:38;;;;;;;24.63;12.30;;;;;;;15.85;100.00;98369.63;5110423;28;20212;-82
2022/05/30 01:16:05;;;;;;;44.47;11.27;;;;;;;15.80;100.00;98371.91;5110727;28;20392;-83
2022/05/30 01:18:36;;;;;;;77.50;11.07;;;;;;;15.84;100.00;98378.34;5110838;28;20301;-75
2022/05/30 01:21:24;;;;;;;87.60;12.20;;;;;;;15.88;100.00;98374.47;5110669;28;20306;-76
2022/05/30 01:24:01;;;;;;;21.33;9.57;;;;;;;15.88;100.00;98378.81;5110281;28;20221;-83
2022/05/30 01:26:47;;;;;;;42.47;10.50;;;;;;;15.86;100.00;98380.78;5110562;28;20236;-82
2022/05/30 01:29:21;;;;;;;120.33;11.47;;;;;;;15.84;100.00;98383.50;5110598;28;20211;-82
2022/05/30 01:31:47;;;;;;;119.37;11.97;;;;;;;15.89;100.00;98391.56;5110227;28;20231;-76
2022/05/30 01:34:13;;;;;;;27.07;11.07;;;;;;;15.95;100.00;98390.91;5110223;28;20216;-82
2022/05/30 01:36:39;;;;;;;19.37;11.00;;;;;;;15.95;100.00;98396.06;5110124;28;20333;-82
2022/05/30 01:39:06;;;;;;;16.43;10.57;;;;;;;15.96;100.00;98402.03;5110221;28;20205;-82
2022/05/30 01:41:32;;;;;;;21.87;11.50;;;;;;;15.97;100.00;98406.19;5110367;28;20236;-83
2022/05/30 01:43:59;;;;;;;16.83;10.87;;;;;;;15.99;100.00;98409.44;5110310;28;20213;-76
2022/05/30 01:46:26;;;;;;;29.20;11.40;;;;;;;16.02;100.00;98404.75;5110101;28;20320;-76
2022/05/30 01:48:53;;;;;;;19.43;11.77;;;;;;;16.01;100.00;98412.66;5110053;28;20225;-83
2022/05/30 01:51:21;;;;;;;16.03;10.93;;;;;;;16.02;100.00;98406.53;5109942;28;20228;-82
2022/05/30 01:53:47;;;;;;;15.90;10.90;;;;;;;16.04;100.00;98415.72;5110079;28;20300;-81
2022/05/30 01:56:14;;;;;;;43.80;10.53;;;;;;;16.10;100.00;98410.88;5109892;28;20671;-79
2022/05/30 01:58:40;;;;;;;42.60;9.90;;;;;;;16.16;100.00;98417.97;5109999;28;20285;-83
2022/05/30 02:01:14;;;;;;;151.27;12.30;;;;;;;16.13;100.00;98428.63;5109870;28;20225;-83
2022/05/30 02:03:41;;;;;;;12.20;9.60;;;;;;;16.15;100.00;98426.69;5110330;28;20565;-76
2022/05/30 02:06:08;;;;;;;68.43;11.90;;;;;;;16.20;100.00;98435.56;5109042;28;20336;-76
2022/05/30 02:08:34;;;;;;;27.30;10.60;;;;;;;16.17;100.00;98437.63;5109529;28;20737;-83
2022/05/30 02:11:00;;;;;;;32.80;12.23;;;;;;;16.12;100.00;98434.75;5109765;28;20891;-77
2022/05/30 02:13:26;;;;;;;152.67;13.93;;;;;;;16.04;100.00;98436.34;5109708;28;20220;-82
2022/05/30 02:18:37;;;;;;;43.23;12.67;;;;;;;15.93;100.00;98434.09;5109709;28;20204;-77
2022/05/30 02:21:04;;;;;;;50.53;13.03;;;;;;;15.94;100.00;98440.88;5109651;28;20235;-83
2022/05/30 02:23:30;;;;;;;17.77;12.63;;;;;;;15.99;100.00;98438.59;5109493;28;20700;-77
2022/05/30 02:25:56;;;;;;;18.87;13.23;;;;;;;15.97;100.00;98445.72;5109778;28;20229;-77
2022/05/30 02:28:22;;;;;;;18.17;13.43;;;;;;;16.07;100.00;98446.34;5109250;28;20216;-79
2022/05/30 02:30:49;;;;;;;20.37;14.70;;;;;;;16.11;100.00;98440.84;5109599;28;20233;-83
2022/05/30 02:38:44;;;;;;;22.43;15.60;;;;;;;16.01;100.00;98459.88;5109557;28;20665;-78
2022/05/30 02:41:10;;;;;;;25.43;15.70;;;;;;;16.00;100.00;98454.91;5109385;28;20284;-77
2022/05/30 02:43:36;;;;;;;25.07;16.43;;;;;;;15.99;100.00;98459.22;5109083;28;20725;-77
2022/05/30 02:46:03;;;;;;;26.00;16.13;;;;;;;16.09;100.00;98468.59;5108954;28;20232;-83
2022/05/30 02:48:29;;;;;;;25.80;16.83;;;;;;;16.01;100.00;98477.94;5109131;28;20205;-77
2022/05/30 02:50:55;;;;;;;30.10;18.73;;;;;;;16.01;100.00;98477.94;5109480;28;20237;-82
2022/05/30 02:53:21;;;;;;;30.23;19.33;;;;;;;16.04;100.00;98481.97;5109265;28;20204;-82
2022/05/30 02:55:48;;;;;;;27.90;18.93;;;;;;;16.03;100.00;98486.31;5108832;28;20241;-83
2022/05/30 02:58:14;;;;;;;28.13;18.70;;;;;;;16.10;100.00;98483.09;5108905;28;20262;-83
2022/05/30 03:00:40;;;;;;;25.70;17.17;;;;;;;16.11;100.00;98487.28;5109263;28;20228;-77
2022/05/30 03:03:07;;;;;;;23.60;16.77;;;;;;;16.12;100.00;98478.59;5108856;28;20212;-83
2022/05/30 03:05:33;;;;;;;30.10;17.43;;;;;;;16.06;100.00;98486.00;5108779;28;20229;-80
2022/05/30 03:08:03;;;;;;;24.67;15.90;;;;;;;16.03;100.00;98491.47;5109312;28;20641;-77
2022/05/30 03:10:29;;;;;;;26.73;16.73;;;;;;;16.06;100.00;98496.31;5108846;28;20692;-83
2022/05/30 03:12:56;;;;;;;25.73;16.87;;;;;;;16.09;100.00;98504.69;5108992;28;20227;-78
2022/05/30 03:15:22;;;;;;;25.57;17.03;;;;;;;16.07;100.00;98502.28;5108914;28;20216;-77
2022/05/30 03:17:51;;;;;;;27.40;17.70;;;;;;;16.11;100.00;98513.06;5110847;28;20208;-84
2022/05/30 03:20:17;;;;;;;27.63;18.00;;;;;;;16.05;100.00;98517.88;5112348;28;20248;-83
2022/05/30 03:22:44;;;;;;;29.83;18.43;;;;;;;16.06;100.00;98518.72;5112231;28;20691;-85
2022/05/30 03:25:11;;;;;;;31.30;19.33;;;;;;;16.02;100.00;98525.94;5112143;28;20213;-83
2022/05/30 03:27:37;;;;;;;32.07;19.17;;;;;;;16.11;100.00;98520.81;5112337;28;20228;-77
2022/05/30 03:30:05;;;;;;;32.40;19.30;;;;;;;16.14;100.00;98523.84;5112156;28;20213;-82
2022/05/30 03:32:31;;;;;;;29.67;18.33;;;;;;;16.18;100.00;98524.38;5112098;28;20236;-76
2022/05/30 03:34:58;;;;;;;29.50;18.37;;;;;;;16.27;100.00;98525.97;5112393;28;20209;-77
2022/05/30 03:37:24;;;;;;;27.50;17.50;;;;;;;16.30;100.00;98523.06;5111984;28;20285;-83
2022/05/30 03:39:50;;;;;;;24.37;17.17;;;;;;;16.21;100.00;98529.22;5111981;28;20232;-82
2022/05/30 03:42:16;;;;;;;25.93;16.97;;;;;;;16.25;100.00;98538.22;5111893;28;20229;-83
2022/05/30 03:44:43;;;;;;;25.27;16.73;;;;;;;16.19;100.00;98538.88;5111894;28;20721;-77
2022/05/30 03:47:11;;;;;;;24.83;16.23;;;;;;;16.12;100.00;98545.66;5111887;28;20235;-84
2022/05/30 03:49:38;;;;;;;27.97;16.60;;;;;;;16.27;100.00;98544.03;5111788;28;20220;-84
2022/05/30 03:52:05;;;;;;;25.37;16.20;;;;;;;16.34;100.00;98550.16;5111844;28;20237;-77
2022/05/30 03:54:32;;;;;;;23.30;15.03;;;;;;;16.33;100.00;98556.28;5111690;28;20211;-83
2022/05/30 03:56:58;;;;;;;21.83;15.13;;;;;;;16.32;100.00;98557.28;5111939;28;20673;-77
2022/05/30 03:59:24;;;;;;;21.57;14.80;;;;;;;16.30;100.00;98566.94;5111897;28;20213;-83
2022/05/30 04:01:50;;;;;;;23.37;14.70;;;;;;;16.28;100.00;98567.06;5111537;28;20243;-77
2022/05/30 04:04:17;;;;;;;24.53;15.10;;;;;;;16.36;100.00;98574.03;5111682;28;20209;-82
2022/05/30 04:06:43;;;;;;;24.77;15.83;;;;;;;16.39;100.00;98578.88;5111596;28;20229;-84
2022/05/30 04:09:10;;;;;;;21.50;13.80;;;;;;;16.40;100.00;98585.63;5111584;28;20205;-83
2022/05/30 04:11:36;;;;;;;26.40;15.87;;;;;;;16.48;100.00;98582.25;5111352;28;20225;-85
2022/05/30 04:14:02;;;;;;;25.07;15.30;;;;;;;16.43;100.00;98580.16;5111714;28;20236;-84
2022/05/30 04:16:29;;;;;;;25.37;15.37;;;;;;;16.47;100.00;98581.47;5111312;28;20233;-77
2022/05/30 04:18:55;;;;;;;22.03;14.80;;;;;;;16.57;100.00;98590.81;5111689;28;20697;-77
2022/05/30 04:21:22;;;;;;;20.00;14.47;;;;;;;16.45;100.00;98580.81;5111227;28;20233;-83
2022/05/30 04:23:48;;;;;;;23.80;15.50;;;;;;;16.52;100.00;98594.69;5111324;28;20232;-77
2022/05/30 04:26:17;;;;;;;23.23;14.87;;;;;;;16.63;100.00;98600.47;5111563;28;20240;-84
2022/05/30 04:28:43;;;;;;;21.57;14.27;;;;;;;16.67;100.00;98602.59;5111254;28;20573;-84
2022/05/30 04:31:11;;;;;;;18.87;13.87;;;;;;;16.73;100.00;98616.63;5111293;28;20240;-77
2022/05/30 04:33:38;;;;;;;20.17;14.03;;;;;;;16.81;100.00;98608.88;5111211;28;20220;-76
2022/05/30 04:36:07;;;;;;;19.93;13.67;;;;;;;16.85;100.00;98615.38;5111274;28;20658;-77
2022/05/30 04:38:34;;;;;;;25.03;14.63;;;;;;;16.84;100.00;98607.75;5111315;28;20726;-76
2022/05/30 04:41:01;;;;;;;21.20;14.07;;;;;;;16.89;100.00;98614.06;5111348;28;20230;-84
2022/05/30 04:43:27;;;;;;;20.37;14.57;;;;;;;16.97;100.00;98614.06;5111105;28;20205;-84
2022/05/30 04:46:11;;;;;;;20.10;14.33;;;;;;;17.04;100.00;98618.56;5110725;28;20244;-84
2022/05/30 04:48:37;;;;;;;20.80;14.43;;;;;;;17.10;100.00;98615.31;5109051;28;20210;-77
2022/05/30 04:51:03;;;;;;;20.10;14.33;;;;;;;17.11;100.00;98611.78;5110756;28;20234;-84
2022/05/30 04:53:30;;;;;;;20.40;14.07;;;;;;;17.09;100.00;98621.47;5111021;28;20218;-84
2022/05/30 04:55:56;;;;;;;21.87;14.57;;;;;;;17.02;100.00;98616.16;5110923;28;20231;-83
2022/05/30 04:58:23;;;;;;;22.03;13.73;;;;;;;17.11;100.00;98619.53;5111028;28;20217;-77
2022/05/30 05:00:49;;;;;;;19.30;13.53;;;;;;;17.11;100.00;98620.34;5110714;28;20229;-77
2022/05/30 05:03:15;;;;;;;18.93;13.93;;;;;;;17.16;100.00;98627.56;5110755;28;20209;-77
2022/05/30 05:05:42;;;;;;;18.77;14.00;;;;;;;17.15;100.00;98619.03;5110127;28;20241;-84
2022/05/30 05:08:29;;;;;;;21.47;14.23;;;;;;;17.14;100.00;98622.59;5110678;28;20258;-76
2022/05/30 05:11:04;;;;;;;22.57;14.37;;;;;;;17.07;100.00;98623.41;5110439;28;20328;-84
2022/05/30 05:13:30;;;;;;;23.40;14.57;;;;;;;17.08;100.00;98620.66;5110941;28;20235;-77
2022/05/30 05:15:57;;;;;;;22.87;14.47;;;;;;;17.21;100.00;98630.47;5110719;28;20243;-83
2022/05/30 05:18:23;;;;;;;21.50;14.10;;;;;;;17.28;100.00;98631.44;5110642;28;20218;-83
2022/05/30 05:20:49;;;;;;;19.63;14.13;;;;;;;17.30;100.00;98629.50;5110324;28;20227;-77
2022/05/30 05:23:15;;;;;;;19.67;13.43;;;;;;;17.30;100.00;98632.06;5110466;28;20211;-84
2022/05/30 05:25:42;;;;;;;16.93;12.83;;;;;;;17.35;100.00;98636.75;5110345;28;20235;-85
2022/05/30 05:28:09;;;;;;;18.77;13.27;;;;;;;17.39;100.00;98643.19;5110305;28;20588;-77
2022/05/30 05:30:35;;;;;;;17.40;13.13;;;;;;;17.46;100.00;98643.38;5110284;28;20291;-84
2022/05/30 05:33:02;;;;;;;22.37;13.73;;;;;;;17.54;100.00;98646.72;5110355;28;20211;-84
2022/05/30 05:35:28;;;;;;;19.90;13.70;;;;;;;17.62;100.00;98653.63;5110561;28;20300;-84
2022/05/30 05:37:55;;;;;;;21.37;13.93;;;;;;;17.70;100.00;98645.88;5110442;28;20233;-77
2022/05/30 05:40:21;;;;;;;18.83;13.83;;;;;;;17.77;100.00;98652.00;5109340;28;20250;-84
2022/05/30 05:42:47;;;;;;;19.53;12.73;;;;;;;17.83;100.00;98656.53;5110190;28;20233;-77
2022/05/30 05:45:14;;;;;;;19.00;13.17;;;;;;;17.94;100.00;98651.94;5110244;28;20218;-83
2022/05/30 05:47:41;;;;;;;17.27;12.67;;;;;;;17.99;100.00;98654.84;5110091;28;20223;-84
2022/05/30 05:50:10;;;;;;;20.40;13.30;;;;;;;18.07;100.00;98657.38;5110094;28;20237;-83
2022/05/30 05:52:36;;;;;;;18.23;12.23;;;;;;;18.12;100.00;98659.44;5109956;28;20209;-77
2022/05/30 05:55:03;;;;;;;21.87;13.23;;;;;;;18.18;100.00;98664.78;5109847;28;20216;-77
2022/05/30 05:57:29;;;;;;;20.93;13.07;;;;;;;18.17;100.00;98670.91;5109774;28;20244;-83
2022/05/30 05:59:55;;;;;;;16.03;12.77;;;;;;;18.29;100.00;98674.72;5109812;28;20276;-77
2022/05/30 06:02:23;;;;;;;18.73;12.90;;;;;;;18.28;100.00;98675.69;5109812;28;20226;-85
2022/05/30 06:04:52;;;;;;;21.73;12.50;;;;;;;18.24;100.00;98684.00;5109721;28;20304;-82
2022/05/30 06:07:19;;;;;;;16.00;12.67;;;;;;;18.23;100.00;98679.78;5109576;28;20236;-83
2022/05/30 06:09:45;;;;;;;18.07;12.40;;;;;;;18.30;100.00;98691.88;5109811;28;20255;-83
2022/05/30 06:12:11;;;;;;;18.77;12.13;;;;;;;18.32;100.00;98692.53;5109428;28;20240;-83
2022/05/30 06:14:37;;;;;;;18.03;12.57;;;;;;;18.37;100.00;98701.53;5109560;28;20297;-83
2022/05/30 06:17:04;;;;;;;17.47;12.67;;;;;;;18.42;100.00;98704.44;5109471;28;20610;-83
2022/05/30 06:19:31;;;;;;;23.57;12.37;;;;;;;18.37;100.00;98714.47;5109392;28;20216;-82
2022/05/30 06:21:57;;;;;;;15.93;12.27;;;;;;;18.36;100.00;98708.50;5109695;28;20238;-82
2022/05/30 06:24:24;;;;;;;18.33;11.87;;;;;;;18.33;100.00;98714.81;5109479;28;20234;-84
2022/05/30 06:26:50;;;;;;;19.97;11.90;;;;;;;18.25;100.00;98717.44;5109722;28;20235;-82
2022/05/30 06:29:16;;;;;;;17.53;11.63;;;;;;;18.18;100.00;98721.69;5109575;28;20635;-84
2022/05/30 06:31:42;;;;;;;19.50;12.67;;;;;;;18.12;100.00;98731.88;5109309;28;20236;-81
2022/05/30 06:34:09;;;;;;;19.83;13.00;;;;;;;17.98;100.00;98721.28;5109371;28;20233;-82
2022/05/30 06:36:38;;;;;;;20.97;13.63;;;;;;;17.95;100.00;98731.13;5109287;28;20239;-83
2022/05/30 06:39:04;;;;;;;17.17;12.10;;;;;;;18.11;100.00;98731.09;5109328;28;20221;-85
2022/05/30 06:41:32;;;;;;;19.10;13.47;;;;;;;18.16;100.00;98738.38;5109571;28;20233;-83
2022/05/30 06:44:02;;;;;;;16.90;12.50;;;;;;;18.09;100.00;98738.19;5109332;28;20604;-82
2022/05/30 06:46:29;;;;;;;19.53;12.37;;;;;;;18.14;100.00;98735.13;5109153;28;20254;-84
2022/05/30 06:48:56;;;;;;;20.93;12.97;;;;;;;18.09;100.00;98733.84;5109468;28;20607;-83
2022/05/30 06:51:23;;;;;;;19.90;12.47;;;;;;;18.20;100.00;98735.25;5108784;28;20235;-80
2022/05/30 06:53:50;;;;;;;19.13;13.17;;;;;;;18.13;100.00;98739.50;5109158;28;20272;-82
2022/05/30 06:56:19;;;;;;;18.07;12.73;;;;;;;18.17;100.00;98740.75;5109026;28;20235;-84
2022/05/30 06:58:47;;;;;;;18.77;12.70;;;;;;;18.21;100.00;98749.81;5109233;28;20222;-82
2022/05/30 07:01:14;;;;;;;18.60;12.37;;;;;;;18.17;100.00;98748.53;5109098;28;20232;-83
2022/05/30 07:03:40;;;;;;;19.33;13.30;;;;;;;18.24;100.00;98748.69;5109267;28;20214;-82
2022/05/30 07:06:07;;;;;;;16.67;11.20;;;;;;;18.32;100.00;98752.03;5108815;28;20238;-83
2022/05/30 07:08:34;;;;;;;17.23;11.27;;;;;;;18.35;100.00;98753.47;5109048;28;20205;-82
2022/05/30 07:11:01;;;;;;;14.77;10.47;;;;;;;18.37;100.00;98768.84;5108650;28;20232;-82
2022/05/30 07:13:27;;;;;;;15.93;10.37;;;;;;;18.42;100.00;98763.97;5109208;28;20259;-82
2022/05/30 07:15:53;;;;;;;17.63;10.47;;;;;;;18.41;100.00;98767.50;5108641;28;20240;-82
2022/05/30 07:18:20;;;;;;;14.30;10.07;;;;;;;18.46;100.00;98760.06;5108827;28;20227;-81
2022/05/30 07:20:47;;;;;;;14.80;10.33;;;;;;;18.52;100.00;98764.56;5109037;28;20260;-82
2022/05/30 07:23:13;;;;;;;15.80;10.70;;;;;;;18.64;100.00;98765.78;5108774;28;20742;-82
2022/05/30 07:25:41;;;;;;;15.43;10.30;;;;;;;18.75;100.00;98764.63;5108589;28;20233;-82
2022/05/30 07:28:12;;;;;;;13.20;9.47;;;;;;;18.71;100.00;98769.31;5108582;28;20658;-81
2022/05/30 07:30:39;;;;;;;12.20;9.40;;;;;;;18.84;100.00;98768.78;5108562;28;20260;-82
2022/05/30 07:33:06;;;;;;;15.23;9.93;;;;;;;18.95;100.00;98770.97;5108742;28;20210;-83
2022/05/30 07:35:32;;;;;;;13.20;9.67;;;;;;;19.05;100.00;98777.69;5108571;28;20227;-83
2022/05/30 07:37:58;;;;;;;15.13;10.10;;;;;;;19.09;100.00;98781.56;5108677;28;20629;-83
2022/05/30 07:40:24;;;;;;;10.53;8.77;;;;;;;19.11;100.00;98785.63;5108294;28;20218;-82
2022/05/30 07:42:50;;;;;;;10.90;8.30;;;;;;;19.30;100.00;98794.69;5108337;28;20260;-81
2022/05/30 07:45:17;;;;;;;12.10;8.47;;;;;;;19.45;100.00;98799.91;5108313;28;20218;-82
2022/05/30 07:47:44;;;;;;;10.47;7.80;;;;;;;19.58;100.00;98800.16;5108501;28;20216;-82
2022/05/30 07:50:11;;;;;;;13.63;8.07;;;;;;;19.60;100.00;98811.13;5108574;28;20215;-83
2022/05/30 07:52:37;;;;;;;10.73;7.20;;;;;;;19.62;98.78;98809.16;5108224;28;20299;-81
2022/05/30 07:55:04;;;;;;;10.47;7.10;;;;;;;19.75;98.92;98807.78;5108339;28;20692;-82
2022/05/30 08:00:15;;;;;;;13.30;6.87;;;;;;;19.72;97.24;98813.34;5108164;28;20276;-82
2022/05/30 08:02:42;;;;;;;11.80;6.97;;;;;;;19.85;98.74;98813.53;5108900;28;20635;-82
2022/05/30 08:05:11;;;;;;;9.43;7.03;;;;;;;19.93;98.92;98826.44;5111516;28;20211;-82
2022/05/30 08:07:37;;;;;;;9.13;5.90;;;;;;;19.87;95.61;98816.78;5111707;28;20212;-82
2022/05/30 08:10:06;;;;;;;7.23;5.87;;;;;;;19.90;93.90;98826.81;5111830;28;20210;-81
2022/05/30 08:12:33;;;;;;;8.47;5.60;;;;;;;19.95;95.96;98826.25;5111554;28;20710;-82
2022/05/30 08:14:59;;;;;;;8.90;5.93;;;;;;;19.96;96.45;98831.28;5111967;28;20686;-82
2022/05/30 08:17:26;;;;;;;10.00;6.00;;;;;;;19.82;95.99;98826.88;5111688;28;20238;-82
2022/05/30 08:19:53;;;;;;;8.77;6.03;;;;;;;19.74;95.30;98832.13;5111342;28;20215;-82
2022/05/30 08:22:19;;;;;;;8.43;5.70;;;;;;;19.83;95.40;98831.06;5111485;28;20232;-82
2022/05/30 08:24:47;;;;;;;7.67;5.33;;;;;;;19.80;94.23;98841.78;5111208;28;20224;-82
2022/05/30 08:27:14;;;;;;;8.17;6.10;;;;;;;19.84;93.78;98837.88;5111214;28;20758;-81
2022/05/30 08:29:42;;;;;;;6.93;5.50;;;;;;;19.86;93.77;98835.91;5111073;28;20226;-80
2022/05/30 08:32:09;;;;;;;7.73;6.20;;;;;;;19.97;96.00;98837.25;5111349;28;20742;-81
2022/05/30 08:34:35;;;;;;;9.80;6.30;;;;;;;20.16;94.82;98838.53;5111192;28;20217;-81
2022/05/30 08:37:03;;;;;;;9.47;5.70;;;;;;;20.55;92.96;98848.69;5111171;28;20722;-81
2022/05/30 08:42:13;;;;;;;10.37;6.27;;;;;;;21.64;88.99;98846.84;5109750;28;20219;-81
2022/05/30 08:44:40;;;;;;;8.90;5.53;;;;;;;22.36;86.70;98845.72;5111115;28;20620;-81
2022/05/30 08:47:12;;;;;;;8.50;5.60;;;;;;;23.01;86.45;98850.63;5110796;28;20224;-81
2022/05/30 08:49:46;;;;;;;7.03;5.18;;;;;;;23.26;81.55;98861.31;5110950;28;20217;-81
2022/05/30 08:52:28;;;;;;;6.75;5.03;;;;;;;23.72;80.49;98856.16;5110921;28;20236;-81
2022/05/30 08:55:09;;;;;;;8.85;4.85;;;;;;;23.89;77.12;98866.19;5111140;28;20423;-81
2022/05/30 08:57:45;;;;;;;7.60;4.82;;;;;;;23.82;76.83;98860.94;5110817;28;20233;-81
2022/05/30 09:00:19;;;;;;;9.68;5.28;;;;;;;23.72;77.54;98865.78;5110925;28;20212;-80
2022/05/30 09:02:51;;;;;;;7.90;4.50;;;;;;;23.73;77.34;98864.78;5110886;28;20338;-81
2022/05/30 09:05:23;;;;;;;5.78;4.80;;;;;;;23.84;77.16;98866.78;5110617;28;20213;-81
2022/05/30 09:07:53;;;;;;;5.90;4.53;;;;;;;24.25;71.94;98870.16;5110760;28;20209;-81
2022/05/30 09:10:26;;;;;;;5.00;4.50;;;;;;;24.03;72.87;98867.78;5110577;28;20657;-81
2022/05/30 09:12:59;;;;;;;5.07;4.38;;;;;;;24.37;76.44;98868.50;5110835;28;20201;-82
2022/05/30 09:15:31;;;;;;;5.57;4.50;;;;;;;24.57;74.41;98864.03;5110681;28;20679;-81
2022/05/30 09:18:04;;;;;;;4.70;4.00;;;;;;;24.34;69.70;98871.53;5110478;28;20623;-81
2022/05/30 09:20:31;;;;;;;5.70;3.83;;;;;;;24.40;70.75;98873.31;5110457;28;20238;-81
2022/05/30 09:23:01;;;;;;;4.82;4.00;;;;;;;24.33;69.59;98883.00;5110525;28;20209;-80
2022/05/30 09:28:16;;;;;;;6.15;4.07;;;;;;;24.15;71.46;98876.59;5110513;28;20228;-81
2022/05/30 09:30:51;;;;;;;6.50;4.20;;;;;;;24.10;72.60;98884.22;5110188;28;20251;-82
2022/05/30 09:33:29;;;;;;;4.57;4.10;;;;;;;24.09;70.96;98882.63;5110329;28;20266;-81
2022/05/30 09:36:12;;;;;;;5.00;3.80;;;;;;;24.18;72.20;98886.63;5110366;28;20232;-80
2022/05/30 09:38:42;;;;;;;5.07;3.72;;;;;;;24.03;71.34;98883.44;5110303;28;20293;-81
2022/05/30 09:41:14;;;;;;;4.25;3.80;;;;;;;23.92;71.25;98889.28;5110181;28;20229;-81
2022/05/30 09:43:45;;;;;;;5.97;3.65;;;;;;;23.95;70.62;98894.09;5110269;28;20623;-81
2022/05/30 09:46:19;;;;;;;4.63;4.00;;;;;;;24.11;72.10;98885.03;5110203;28;20241;-81
2022/05/30 09:49:05;;;;;;;3.85;3.33;;;;;;;24.11;69.71;98891.06;5109936;28;20213;-81
2022/05/30 09:51:38;;;;;;;4.30;3.80;;;;;;;24.11;71.03;98896.28;5109835;28;20488;-80
2022/05/30 09:54:07;;;;;;;4.13;3.72;;;;;;;24.06;71.67;98898.72;5110406;28;20217;-81
2022/05/30 09:56:38;;;;;;;4.63;3.80;;;;;;;23.92;72.75;98897.13;5109557;28;20244;-81
2022/05/30 09:59:07;;;;;;;6.72;3.70;;;;;;;23.58;71.34;98891.03;5109917;28;20202;-82
2022/05/30 10:01:36;;;;;;;5.65;3.75;;;;;;;23.66;71.68;98893.47;5110216;28;20241;-80
2022/05/30 10:04:30;;;;;;;4.32;3.80;;;;;;;23.72;72.46;98892.69;5109841;28;20217;-81
2022/05/30 10:07:10;;;;;;;4.75;3.72;;;;;;;23.75;74.45;98894.09;5109746;28;20320;-81
2022/05/30 10:09:50;;;;;;;6.30;3.85;;;;;;;23.66;71.45;98892.66;5109751;28;20217;-82
2022/05/30 10:12:27;;;;;;;4.20;3.78;;;;;;;23.63;71.59;98888.66;5109511;28;20737;-80
2022/05/30 10:14:53;;;;;;;4.20;3.65;;;;;;;23.69;73.56;98893.06;5109882;28;20205;-81
2022/05/30 10:17:28;;;;;;;7.78;3.90;;;;;;;23.77;73.15;98889.50;5109367;28;20233;-81
2022/05/30 10:19:56;;;;;;;6.80;3.90;;;;;;;23.87;73.91;98894.31;5109780;28;20304;-81
2022/05/30 10:28:49;;;;;;;5.28;3.92;;;;;;;24.01;72.70;98893.28;5109510;28;20711;-81
2022/05/30 10:31:37;;;;;;;5.20;3.95;;;;;;;24.24;70.96;98890.25;5109302;28;20225;-79
2022/05/30 10:34:19;;;;;;;6.55;3.78;;;;;;;24.49;72.03;98895.63;5109430;28;20224;-79
2022/05/30 10:37:06;;;;;;;6.25;3.60;;;;;;;24.77;70.56;98890.13;5109270;28;20263;-81
2022/05/30 10:40:01;;;;;;;6.28;3.45;;;;;;;24.96;67.55;98893.66;5109440;28;20514;-80
2022/05/30 10:42:37;;;;;;;5.07;3.45;;;;;;;25.01;69.05;98896.44;5109474;28;20247;-81
2022/05/30 10:45:11;;;;;;;5.75;3.67;;;;;;;25.64;70.57;98889.66;5109200;28;20224;-81
2022/05/30 10:47:39;;;;;;;4.38;3.70;;;;;;;25.80;63.33;98889.09;5108985;28;20225;-81
2022/05/30 10:50:13;;;;;;;4.55;3.38;;;;;;;25.86;65.61;98888.28;5108932;28;20205;-79
2022/05/30 10:52:44;;;;;;;4.03;3.10;;;;;;;25.83;62.71;98886.09;5109192;28;20587;-79
2022/05/30 10:55:15;;;;;;;3.22;2.85;;;;;;;26.29;60.91;98878.81;5108885;28;20262;-79
2022/05/30 10:57:45;;;;;;;4.90;3.00;;;;;;;26.72;62.14;98878.75;5109154;28;20622;-79
2022/05/30 11:00:15;;;;;;;4.35;2.95;;;;;;;26.76;59.41;98871.22;5109021;28;20213;-80
2022/05/30 11:02:57;;;;;;;3.17;2.63;;;;;;;26.82;61.02;98875.59;5108996;28;20582;-79
2022/05/30 11:05:28;;;;;;;3.20;2.90;;;;;;;26.76;58.85;98882.56;5108799;28;20319;-78
2022/05/30 11:08:05;;;;;;;3.22;2.90;;;;;;;26.77;59.31;98878.88;5109106;28;20266;-80
2022/05/30 11:10:45;;;;;;;2.97;2.60;;;;;;;27.15;58.52;98880.44;5109058;28;20734;-81
2022/05/30 11:13:24;;;;;;;3.38;2.78;;;;;;;27.45;57.86;98879.59;5108963;28;20213;-81
2022/05/30 11:15:57;;;;;;;4.03;2.60;;;;;;;27.38;57.69;98873.66;5108764;28;20795;-80
2022/05/30 11:18:32;;;;;;;3.78;2.42;;;;;;;27.57;57.95;98872.53;5108768;28;20268;-81
2022/05/30 11:21:07;;;;;;;3.10;2.50;;;;;;;27.69;56.26;98875.16;5108802;28;20337;-81
2022/05/30 11:23:33;;;;;;;3.53;2.40;;;;;;;27.79;54.64;98879.91;5108921;28;20205;-78
2022/05/30 11:26:14;;;;;;;3.67;2.70;;;;;;;27.79;55.63;98880.72;5108559;28;20237;-79
2022/05/30 11:29:05;;;;;;;6.68;2.55;;;;;;;27.83;57.00;98875.78;5108738;28;20683;-81
2022/05/30 11:31:41;;;;;;;4.22;2.80;;;;;;;27.67;55.40;98872.78;5108913;28;20225;-79
2022/05/30 11:34:25;;;;;;;3.05;2.33;;;;;;;27.21;53.95;98884.78;5108761;28;20243;-81
2022/05/30 11:37:06;;;;;;;2.92;2.60;;;;;;;27.10;55.10;98888.94;5108862;28;20244;-79
2022/05/30 11:39:51;;;;;;;4.68;2.50;;;;;;;27.08;55.10;98884.94;5111692;28;20217;-79
2022/05/30 11:42:27;;;;;;;4.55;2.67;;;;;;;26.63;55.37;98880.88;5112062;28;20315;-80
2022/05/30 11:44:59;;;;;;;3.47;2.40;;;;;;;26.63;58.81;98882.69;5112079;28;20600;-79
2022/05/30 11:47:31;;;;;;;3.20;2.58;;;;;;;26.60;58.71;98883.13;5111917;28;20282;-79
2022/05/30 11:50:26;;;;;;;4.38;3.13;;;;;;;26.50;58.92;98877.59;5112492;28;20614;-79
2022/05/30 11:53:20;;;;;;;3.60;2.90;;;;;;;26.34;60.43;98884.19;5112200;28;20205;-81
2022/05/30 11:55:57;;;;;;;4.32;2.70;;;;;;;26.45;60.12;98885.31;5111938;28;20445;-78